sensor_id;sensor_type;location;lat;lon;timestamp;pressure;altitude;pressure_sealevel;temperature;humidity
9257;BME280;4665;51.368;6.782;2023-04-06T00:00:04;101512.72;;;1.81;100.00
9257;BME280;4665;51.368;6.782;2023-04-06T00:02:32;101506.03;;;1.75;100.00
9257;BME280;4665;51.368;6.782;2023-04-06T00:04:58;101505.66;;;1.65;100.00
9257;BME280;4665;51.368;6.782;2023-04-06T00:07:23;101505.50;;;1.68;100.00
9257;BME280;4665;51.368;6.782;2023-04-06T00:09:49;101507.44;;;1.65;100.00
9257;BME280;4665;51.368;6.782;2023-04-06T00:12:14;101506.91;;;1.58;100.00
9257;BME280;4665;51.368;6.782;2023-04-06T00:14:40;101505.44;;;1.53;100.00
9257;BME280;4665;51.368;6.782;2023-04-06T00:17:05;101503.97;;;1.47;100.00
9257;BME280;4665;51.368;6.782;2023-04-06T00:19:31;101502.44;;;1.43;100.00
9257;BME280;4665;51.368;6.782;2023-04-06T00:21:56;101497.56;;;1.35;100.00
9257;BME280;4665;51.368;6.782;2023-04-06T00:24:21;101493.31;;;1.33;100.00
9257;BME280;4665;51.368;6.782;2023-04-06T00:26:47;101489.81;;;1.32;100.00
9257;BME280;4665;51.368;6.782;2023-04-06T00:29:12;101494.16;;;1.33;100.00
9257;BME280;4665;51.368;6.782;2023-04-06T00:31:38;101497.94;;;1.27;100.00
9257;BME280;4665;51.368;6.782;2023-04-06T00:34:03;101493.00;;;1.21;100.00
9257;BME280;4665;51.368;6.782;2023-04-06T00:36:28;101487.16;;;1.16;100.00
9257;BME280;4665;51.368;6.782;2023-04-06T00:38:55;101489.06;;;1.13;100.00
9257;BME280;4665;51.368;6.782;2023-04-06T00:41:20;101481.25;;;1.11;100.00
9257;BME280;4665;51.368;6.782;2023-04-06T00:43:46;101485.44;;;1.15;100.00
9257;BME280;4665;51.368;6.782;2023-04-06T00:46:11;101478.56;;;1.13;100.00
9257;BME280;4665;51.368;6.782;2023-04-06T00:48:36;101482.75;;;1.17;100.00
9257;BME280;4665;51.368;6.782;2023-04-06T00:51:02;101483.59;;;1.17;100.00
9257;BME280;4665;51.368;6.782;2023-04-06T00:53:27;101479.50;;;1.12;100.00
9257;BME280;4665;51.368;6.782;2023-04-06T00:55:53;101477.78;;;1.11;100.00
9257;BME280;4665;51.368;6.782;2023-04-06T00:58:18;101471.69;;;1.10;100.00
9257;BME280;4665;51.368;6.782;2023-04-06T01:00:43;101471.88;;;1.07;100.00
9257;BME280;4665;51.368;6.782;2023-04-06T01:03:09;101466.75;;;1.04;100.00
9257;BME280;4665;51.368;6.782;2023-04-06T01:05:35;101472.16;;;1.01;100.00
9257;BME280;4665;51.368;6.782;2023-04-06T01:08:05;101462.59;;;1.00;100.00
9257;BME280;4665;51.368;6.782;2023-04-06T01:10:30;101468.06;;;0.95;100.00
9257;BME280;4665;51.368;6.782;2023-04-06T01:12:56;101445.53;;;0.91;100.00
9257;BME280;4665;51.368;6.782;2023-04-06T01:15:22;101448.84;;;0.95;100.00
9257;BME280;4665;51.368;6.782;2023-04-06T01:17:48;101449.94;;;0.91;100.00
9257;BME280;4665;51.368;6.782;2023-04-06T01:20:13;101445.75;;;0.87;100.00
9257;BME280;4665;51.368;6.782;2023-04-06T01:22:39;101445.97;;;0.82;100.00
9257;BME280;4665;51.368;6.782;2023-04-06T01:25:05;101451.22;;;0.82;100.00
9257;BME280;4665;51.368;6.782;2023-04-06T01:27:31;101441.81;;;0.78;100.00
9257;BME280;4665;51.368;6.782;2023-04-06T01:29:56;101445.50;;;0.74;100.00
9257;BME280;4665;51.368;6.782;2023-04-06T01:32:22;101441.47;;;0.67;100.00
9257;BME280;4665;51.368;6.782;2023-04-06T01:34:47;101444.25;;;0.63;100.00
9257;BME280;4665;51.368;6.782;2023-04-06T01:37:13;101434.78;;;0.61;100.00
9257;BME280;4665;51.368;6.782;2023-04-06T01:39:38;101429.88;;;0.53;100.00
9257;BME280;4665;51.368;6.782;2023-04-06T01:42:04;101425.50;;;0.54;100.00
9257;BME280;4665;51.368;6.782;2023-04-06T01:44:29;101436.28;;;0.48;100.00
9257;BME280;4665;51.368;6.782;2023-04-06T01:46:56;101431.81;;;0.50;100.00
9257;BME280;4665;51.368;6.782;2023-04-06T01:49:22;101415.91;;;0.35;100.00
9257;BME280;4665;51.368;6.782;2023-04-06T01:51:47;101420.81;;;0.41;100.00
9257;BME280;4665;51.368;6.782;2023-04-06T01:54:12;101424.53;;;0.37;100.00
9257;BME280;4665;51.368;6.782;2023-04-06T01:56:38;101416.03;;;0.32;100.00
9257;BME280;4665;51.368;6.782;2023-04-06T01:59:03;101432.19;;;0.42;100.00
9257;BME280;4665;51.368;6.782;2023-04-06T02:01:29;101426.22;;;0.38;100.00
9257;BME280;4665;51.368;6.782;2023-04-06T02:03:55;101432.25;;;0.40;100.00
9257;BME280;4665;51.368;6.782;2023-04-06T02:06:20;101421.22;;;0.34;100.00
9257;BME280;4665;51.368;6.782;2023-04-06T02:08:45;101427.22;;;0.36;100.00
9257;BME280;4665;51.368;6.782;2023-04-06T02:11:11;101423.75;;;0.35;100.00
9257;BME280;4665;51.368;6.782;2023-04-06T02:13:36;101427.22;;;0.36;100.00
9257;BME280;4665;51.368;6.782;2023-04-06T02:16:02;101424.66;;;0.34;100.00
9257;BME280;4665;51.368;6.782;2023-04-06T02:18:29;101417.81;;;0.32;100.00
9257;BME280;4665;51.368;6.782;2023-04-06T02:20:55;101421.44;;;0.29;100.00
9257;BME280;4665;51.368;6.782;2023-04-06T02:23:20;101413.63;;;0.28;100.00
9257;BME280;4665;51.368;6.782;2023-04-06T02:25:46;101411.00;;;0.28;100.00
9257;BME280;4665;51.368;6.782;2023-04-06T02:28:11;101412.78;;;0.27;100.00
9257;BME280;4665;51.368;6.782;2023-04-06T02:30:39;101405.97;;;0.23;100.00
9257;BME280;4665;51.368;6.782;2023-04-06T02:33:04;101412.00;;;0.25;100.00
9257;BME280;4665;51.368;6.782;2023-04-06T02:35:30;101407.69;;;0.24;100.00
9257;BME280;4665;51.368;6.782;2023-04-06T02:37:56;101404.28;;;0.22;100.00
9257;BME280;4665;51.368;6.782;2023-04-06T02:40:21;101409.53;;;0.22;100.00
9257;BME280;4665;51.368;6.782;2023-04-06T02:42:47;101408.59;;;0.23;100.00
9257;BME280;4665;51.368;6.782;2023-04-06T02:45:12;101402.44;;;0.24;100.00
9257;BME280;4665;51.368;6.782;2023-04-06T02:47:38;101398.28;;;0.20;100.00
9257;BME280;4665;51.368;6.782;2023-04-06T02:50:04;101399.34;;;0.16;100.00
9257;BME280;4665;51.368;6.782;2023-04-06T02:52:30;101398.56;;;0.14;100.00
9257;BME280;4665;51.368;6.782;2023-04-06T02:54:55;101398.34;;;0.18;100.00
9257;BME280;4665;51.368;6.782;2023-04-06T02:57:20;101402.81;;;0.16;100.00
9257;BME280;4665;51.368;6.782;2023-04-06T02:59:46;101398.50;;;0.15;100.00
9257;BME280;4665;51.368;6.782;2023-04-06T03:02:11;101397.66;;;0.15;100.00
9257;BME280;4665;51.368;6.782;2023-04-06T03:04:39;101395.94;;;0.14;100.00
9257;BME280;4665;51.368;6.782;2023-04-06T03:07:04;101399.44;;;0.14;100.00
9257;BME280;4665;51.368;6.782;2023-04-06T03:09:30;101386.59;;;0.08;100.00
9257;BME280;4665;51.368;6.782;2023-04-06T03:11:55;101407.34;;;0.13;100.00
9257;BME280;4665;51.368;6.782;2023-04-06T03:14:21;101398.66;;;0.12;100.00
9257;BME280;4665;51.368;6.782;2023-04-06T03:16:48;101390.84;;;0.11;100.00
9257;BME280;4665;51.368;6.782;2023-04-06T03:19:14;101385.81;;;0.06;100.00
9257;BME280;4665;51.368;6.782;2023-04-06T03:21:39;101391.13;;;0.05;100.00
9257;BME280;4665;51.368;6.782;2023-04-06T03:24:05;101389.72;;;-0.03;100.00
9257;BME280;4665;51.368;6.782;2023-04-06T03:26:31;101390.44;;;0.01;100.00
9257;BME280;4665;51.368;6.782;2023-04-06T03:28:56;101375.34;;;-0.13;100.00
9257;BME280;4665;51.368;6.782;2023-04-06T03:31:22;101375.28;;;-0.11;100.00
9257;BME280;4665;51.368;6.782;2023-04-06T03:33:47;101387.97;;;-0.02;100.00
9257;BME280;4665;51.368;6.782;2023-04-06T03:36:12;101395.25;;;-0.09;100.00
9257;BME280;4665;51.368;6.782;2023-04-06T03:38:38;101384.00;;;-0.11;100.00
9257;BME280;4665;51.368;6.782;2023-04-06T03:41:03;101365.38;;;-0.24;100.00
9257;BME280;4665;51.368;6.782;2023-04-06T03:43:29;101391.06;;;-0.13;100.00
9257;BME280;4665;51.368;6.782;2023-04-06T03:45:54;101390.28;;;-0.15;100.00
9257;BME280;4665;51.368;6.782;2023-04-06T03:48:20;101374.72;;;-0.18;100.00
9257;BME280;4665;51.368;6.782;2023-04-06T03:50:45;101377.25;;;-0.16;100.00
9257;BME280;4665;51.368;6.782;2023-04-06T03:53:10;101367.16;;;-0.24;100.00
9257;BME280;4665;51.368;6.782;2023-04-06T03:55:36;101385.06;;;-0.15;100.00
9257;BME280;4665;51.368;6.782;2023-04-06T03:58:01;101376.41;;;-0.17;100.00
9257;BME280;4665;51.368;6.782;2023-04-06T04:00:27;101381.59;;;-0.15;100.00
9257;BME280;4665;51.368;6.782;2023-04-06T04:02:52;101379.97;;;-0.18;100.00
9257;BME280;4665;51.368;6.782;2023-04-06T04:05:18;101385.31;;;-0.21;100.00
9257;BME280;4665;51.368;6.782;2023-04-06T04:07:43;101383.63;;;-0.22;100.00
9257;BME280;4665;51.368;6.782;2023-04-06T04:10:09;101383.63;;;-0.22;100.00
9257;BME280;4665;51.368;6.782;2023-04-06T04:12:34;101389.03;;;-0.25;100.00
9257;BME280;4665;51.368;6.782;2023-04-06T04:15:00;101377.97;;;-0.32;100.00
9257;BME280;4665;51.368;6.782;2023-04-06T04:17:25;101383.28;;;-0.33;100.00
9257;BME280;4665;51.368;6.782;2023-04-06T04:19:51;101390.97;;;-0.30;100.00
9257;BME280;4665;51.368;6.782;2023-04-06T04:22:16;101382.38;;;-0.32;100.00
9257;BME280;4665;51.368;6.782;2023-04-06T04:24:41;101392.06;;;-0.34;100.00
9257;BME280;4665;51.368;6.782;2023-04-06T04:27:07;101390.34;;;-0.35;100.00
9257;BME280;4665;51.368;6.782;2023-04-06T04:29:32;101376.78;;;-0.44;100.00
9257;BME280;4665;51.368;6.782;2023-04-06T04:31:58;101387.88;;;-0.38;100.00
9257;BME280;4665;51.368;6.782;2023-04-06T04:34:23;101396.53;;;-0.36;100.00
9257;BME280;4665;51.368;6.782;2023-04-06T04:36:54;101373.38;;;-0.46;100.00
9257;BME280;4665;51.368;6.782;2023-04-06T04:39:20;101381.22;;;-0.46;100.00
9257;BME280;4665;51.368;6.782;2023-04-06T04:41:46;101369.34;;;-0.53;100.00
9257;BME280;4665;51.368;6.782;2023-04-06T04:44:11;101377.97;;;-0.51;100.00
9257;BME280;4665;51.368;6.782;2023-04-06T04:46:36;101369.44;;;-0.56;100.00
9257;BME280;4665;51.368;6.782;2023-04-06T04:49:02;101359.13;;;-0.59;100.00
9257;BME280;4665;51.368;6.782;2023-04-06T04:51:27;101373.56;;;-0.50;100.00
9257;BME280;4665;51.368;6.782;2023-04-06T04:53:53;101360.97;;;-0.61;100.00
9257;BME280;4665;51.368;6.782;2023-04-06T04:56:18;101348.16;;;-0.67;100.00
9257;BME280;4665;51.368;6.782;2023-04-06T04:58:44;101384.31;;;-0.56;100.00
9257;BME280;4665;51.368;6.782;2023-04-06T05:01:09;101363.78;;;-0.66;100.00
9257;BME280;4665;51.368;6.782;2023-04-06T05:03:37;101377.50;;;-0.60;100.00
9257;BME280;4665;51.368;6.782;2023-04-06T05:06:04;101380.22;;;-0.62;100.00
9257;BME280;4665;51.368;6.782;2023-04-06T05:08:30;101366.28;;;-0.62;100.00
9257;BME280;4665;51.368;6.782;2023-04-06T05:10:55;101383.25;;;-0.52;100.00
9257;BME280;4665;51.368;6.782;2023-04-06T05:13:21;101383.19;;;-0.51;100.00
9257;BME280;4665;51.368;6.782;2023-04-06T05:15:47;101392.13;;;-0.36;100.00
9257;BME280;4665;51.368;6.782;2023-04-06T05:18:13;101381.72;;;-0.37;100.00
9257;BME280;4665;51.368;6.782;2023-04-06T05:20:38;101402.91;;;-0.23;100.00
9257;BME280;4665;51.368;6.782;2023-04-06T05:23:04;101389.66;;;-0.20;100.00
9257;BME280;4665;51.368;6.782;2023-04-06T05:25:30;101369.50;;;-0.18;100.00
9257;BME280;4665;51.368;6.782;2023-04-06T05:27:55;101385.19;;;0.01;100.00
9257;BME280;4665;51.368;6.782;2023-04-06T05:30:21;101378.03;;;0.05;100.00
9257;BME280;4665;51.368;6.782;2023-04-06T05:32:46;101384.25;;;0.21;100.00
9257;BME280;4665;51.368;6.782;2023-04-06T05:35:13;101383.03;;;0.28;100.00
9257;BME280;4665;51.368;6.782;2023-04-06T05:37:38;101381.81;;;0.35;100.00
9257;BME280;4665;51.368;6.782;2023-04-06T05:40:05;101387.75;;;0.39;100.00
9257;BME280;4665;51.368;6.782;2023-04-06T05:42:41;101391.09;;;0.43;100.00
9257;BME280;4665;51.368;6.782;2023-04-06T05:45:08;101388.94;;;0.51;100.00
9257;BME280;4665;51.368;6.782;2023-04-06T05:47:35;101392.81;;;0.61;100.00
9257;BME280;4665;51.368;6.782;2023-04-06T05:50:01;101392.19;;;0.73;100.00
9257;BME280;4665;51.368;6.782;2023-04-06T05:52:26;101387.56;;;0.78;100.00
9257;BME280;4665;51.368;6.782;2023-04-06T05:54:52;101382.09;;;0.83;100.00
9257;BME280;4665;51.368;6.782;2023-04-06T05:57:17;101368.13;;;0.82;100.00
9257;BME280;4665;51.368;6.782;2023-04-06T05:59:43;101368.38;;;0.95;100.00
9257;BME280;4665;51.368;6.782;2023-04-06T06:02:09;101374.19;;;1.18;100.00
9257;BME280;4665;51.368;6.782;2023-04-06T06:04:34;101364.38;;;1.21;100.00
9257;BME280;4665;51.368;6.782;2023-04-06T06:07:00;101379.84;;;1.43;100.00
9257;BME280;4665;51.368;6.782;2023-04-06T06:09:26;101372.31;;;1.53;100.00
9257;BME280;4665;51.368;6.782;2023-04-06T06:11:51;101365.31;;;1.54;100.00
9257;BME280;4665;51.368;6.782;2023-04-06T06:14:17;101371.50;;;1.68;100.00
9257;BME280;4665;51.368;6.782;2023-04-06T06:16:42;101352.81;;;1.75;100.00
9257;BME280;4665;51.368;6.782;2023-04-06T06:19:07;101367.63;;;1.92;100.00
9257;BME280;4665;51.368;6.782;2023-04-06T06:21:33;101370.28;;;2.07;100.00
9257;BME280;4665;51.368;6.782;2023-04-06T06:23:58;101381.44;;;2.27;100.00
9257;BME280;4665;51.368;6.782;2023-04-06T06:26:24;101369.38;;;2.39;100.00
9257;BME280;4665;51.368;6.782;2023-04-06T06:28:49;101383.06;;;2.60;100.00
9257;BME280;4665;51.368;6.782;2023-04-06T06:31:15;101383.22;;;2.72;100.00
9257;BME280;4665;51.368;6.782;2023-04-06T06:33:41;101377.72;;;2.91;100.00
9257;BME280;4665;51.368;6.782;2023-04-06T06:36:07;101371.72;;;3.04;100.00
9257;BME280;4665;51.368;6.782;2023-04-06T06:38:32;101384.81;;;3.20;100.00
9257;BME280;4665;51.368;6.782;2023-04-06T06:40:58;101384.84;;;3.34;100.00
9257;BME280;4665;51.368;6.782;2023-04-06T06:43:23;101386.53;;;3.49;100.00
9257;BME280;4665;51.368;6.782;2023-04-06T06:45:51;101386.53;;;3.64;100.00
9257;BME280;4665;51.368;6.782;2023-04-06T06:48:17;101379.66;;;3.75;100.00
9257;BME280;4665;51.368;6.782;2023-04-06T06:50:42;101359.88;;;3.83;100.00
9257;BME280;4665;51.368;6.782;2023-04-06T06:53:08;101367.78;;;3.97;100.00
9257;BME280;4665;51.368;6.782;2023-04-06T06:55:33;101384.31;;;4.13;100.00
9257;BME280;4665;51.368;6.782;2023-04-06T06:57:58;101383.31;;;4.29;100.00
9257;BME280;4665;51.368;6.782;2023-04-06T07:00:24;101379.69;;;4.44;100.00
9257;BME280;4665;51.368;6.782;2023-04-06T07:02:49;101389.34;;;4.58;100.00
9257;BME280;4665;51.368;6.782;2023-04-06T07:05:15;101370.88;;;4.71;100.00
9257;BME280;4665;51.368;6.782;2023-04-06T07:07:41;101373.25;;;4.88;100.00
9257;BME280;4665;51.368;6.782;2023-04-06T07:10:07;101368.09;;;4.99;100.00
9257;BME280;4665;51.368;6.782;2023-04-06T07:12:33;101366.28;;;5.13;100.00
9257;BME280;4665;51.368;6.782;2023-04-06T07:14:58;101359.22;;;5.26;100.00
9257;BME280;4665;51.368;6.782;2023-04-06T07:17:24;101360.69;;;5.43;100.00
9257;BME280;4665;51.368;6.782;2023-04-06T07:19:49;101361.75;;;5.53;100.00
9257;BME280;4665;51.368;6.782;2023-04-06T07:22:14;101365.31;;;5.65;100.00
9257;BME280;4665;51.368;6.782;2023-04-06T07:24:40;101364.44;;;5.77;99.99
9257;BME280;4665;51.368;6.782;2023-04-06T07:27:05;101359.34;;;5.87;100.00
9257;BME280;4665;51.368;6.782;2023-04-06T07:29:31;101368.03;;;6.02;96.73
9257;BME280;4665;51.368;6.782;2023-04-06T07:31:56;101368.19;;;6.11;91.18
9257;BME280;4665;51.368;6.782;2023-04-06T07:34:22;101360.72;;;6.29;93.00
9257;BME280;4665;51.368;6.782;2023-04-06T07:36:47;101356.44;;;6.40;95.53
9257;BME280;4665;51.368;6.782;2023-04-06T07:39:13;101354.50;;;6.42;84.42
9257;BME280;4665;51.368;6.782;2023-04-06T07:41:39;101356.53;;;6.38;88.12
9257;BME280;4665;51.368;6.782;2023-04-06T07:44:05;101358.22;;;6.39;85.55
9257;BME280;4665;51.368;6.782;2023-04-06T07:46:31;101357.81;;;6.57;84.55
9257;BME280;4665;51.368;6.782;2023-04-06T07:48:57;101346.66;;;6.64;86.73
9257;BME280;4665;51.368;6.782;2023-04-06T07:51:23;101352.00;;;6.76;88.84
9257;BME280;4665;51.368;6.782;2023-04-06T07:53:50;101356.13;;;6.91;86.72
9257;BME280;4665;51.368;6.782;2023-04-06T07:56:15;101359.28;;;7.07;81.59
9257;BME280;4665;51.368;6.782;2023-04-06T07:58:41;101356.31;;;7.23;78.20
9257;BME280;4665;51.368;6.782;2023-04-06T08:01:06;101350.19;;;7.34;75.40
9257;BME280;4665;51.368;6.782;2023-04-06T08:03:34;101352.13;;;7.54;78.72
9257;BME280;4665;51.368;6.782;2023-04-06T08:05:59;101360.75;;;7.68;76.43
9257;BME280;4665;51.368;6.782;2023-04-06T08:08:25;101341.34;;;7.78;78.71
9257;BME280;4665;51.368;6.782;2023-04-06T08:10:50;101349.66;;;7.96;75.61
9257;BME280;4665;51.368;6.782;2023-04-06T08:13:15;101348.53;;;8.10;69.87
9257;BME280;4665;51.368;6.782;2023-04-06T08:15:41;101331.06;;;8.08;72.63
9257;BME280;4665;51.368;6.782;2023-04-06T08:18:08;101336.38;;;8.08;69.51
9257;BME280;4665;51.368;6.782;2023-04-06T08:20:33;101334.19;;;8.13;73.87
9257;BME280;4665;51.368;6.782;2023-04-06T08:22:59;101344.28;;;8.19;66.04
9257;BME280;4665;51.368;6.782;2023-04-06T08:25:25;101343.53;;;8.28;68.29
9257;BME280;4665;51.368;6.782;2023-04-06T08:27:50;101341.81;;;8.38;72.31
9257;BME280;4665;51.368;6.782;2023-04-06T08:30:25;101346.13;;;8.51;63.77
9257;BME280;4665;51.368;6.782;2023-04-06T08:32:50;101322.34;;;8.49;63.25
9257;BME280;4665;51.368;6.782;2023-04-06T08:35:16;101333.44;;;8.54;65.75
9257;BME280;4665;51.368;6.782;2023-04-06T08:37:41;101348.63;;;8.63;69.03
9257;BME280;4665;51.368;6.782;2023-04-06T08:40:07;101330.97;;;8.62;67.64
9257;BME280;4665;51.368;6.782;2023-04-06T08:42:33;101346.97;;;8.72;65.57
9257;BME280;4665;51.368;6.782;2023-04-06T08:45:02;101338.50;;;8.78;64.65
9257;BME280;4665;51.368;6.782;2023-04-06T08:47:28;101335.59;;;8.81;63.36
9257;BME280;4665;51.368;6.782;2023-04-06T08:50:08;101337.94;;;8.96;70.93
9257;BME280;4665;51.368;6.782;2023-04-06T08:52:37;101313.31;;;8.94;64.96
9257;BME280;4665;51.368;6.782;2023-04-06T08:55:03;101316.25;;;9.00;63.56
9257;BME280;4665;51.368;6.782;2023-04-06T08:57:30;101330.47;;;9.11;61.63
9257;BME280;4665;51.368;6.782;2023-04-06T08:59:56;101332.75;;;9.25;61.72
9257;BME280;4665;51.368;6.782;2023-04-06T09:02:22;101314.59;;;9.30;60.76
9257;BME280;4665;51.368;6.782;2023-04-06T09:04:48;101315.63;;;9.39;60.96
9257;BME280;4665;51.368;6.782;2023-04-06T09:07:18;101312.16;;;9.48;57.34
9257;BME280;4665;51.368;6.782;2023-04-06T09:09:43;101322.59;;;9.71;62.89
9257;BME280;4665;51.368;6.782;2023-04-06T09:12:30;101340.66;;;9.77;61.03
9257;BME280;4665;51.368;6.782;2023-04-06T09:14:57;101330.31;;;9.83;57.83
9257;BME280;4665;51.368;6.782;2023-04-06T09:17:30;101324.44;;;9.80;57.03
9257;BME280;4665;51.368;6.782;2023-04-06T09:19:57;101326.00;;;9.82;55.81
9257;BME280;4665;51.368;6.782;2023-04-06T09:22:23;101316.75;;;9.86;56.83
9257;BME280;4665;51.368;6.782;2023-04-06T09:24:53;101327.66;;;9.93;55.41
9257;BME280;4665;51.368;6.782;2023-04-06T09:27:38;101328.56;;;10.03;56.29
9257;BME280;4665;51.368;6.782;2023-04-06T09:30:08;101319.84;;;10.01;54.37
9257;BME280;4665;51.368;6.782;2023-04-06T09:32:48;101328.84;;;10.00;53.87
9257;BME280;4665;51.368;6.782;2023-04-06T09:35:14;101320.69;;;10.02;52.72
9257;BME280;4665;51.368;6.782;2023-04-06T09:37:39;101317.47;;;9.98;55.04
9257;BME280;4665;51.368;6.782;2023-04-06T09:40:06;101321.81;;;9.99;54.40
9257;BME280;4665;51.368;6.782;2023-04-06T09:42:33;101306.38;;;9.93;53.34
9257;BME280;4665;51.368;6.782;2023-04-06T09:44:59;101306.13;;;9.96;52.68
9257;BME280;4665;51.368;6.782;2023-04-06T09:47:25;101310.03;;;10.02;53.97
9257;BME280;4665;51.368;6.782;2023-04-06T09:49:59;101312.88;;;10.10;53.32
9257;BME280;4665;51.368;6.782;2023-04-06T09:52:27;101308.66;;;10.17;53.92
9257;BME280;4665;51.368;6.782;2023-04-06T09:54:59;101299.84;;;10.26;52.17
9257;BME280;4665;51.368;6.782;2023-04-06T09:57:32;101303.53;;;10.35;54.51
9257;BME280;4665;51.368;6.782;2023-04-06T10:00:08;101302.69;;;10.44;54.89
9257;BME280;4665;51.368;6.782;2023-04-06T10:07:53;101293.38;;;10.78;54.44
9257;BME280;4665;51.368;6.782;2023-04-06T10:10:21;101298.97;;;10.84;55.92
9257;BME280;4665;51.368;6.782;2023-04-06T10:12:47;101296.84;;;10.88;56.19
9257;BME280;4665;51.368;6.782;2023-04-06T10:15:13;101305.13;;;10.94;55.13
9257;BME280;4665;51.368;6.782;2023-04-06T10:17:39;101301.88;;;11.01;56.00
9257;BME280;4665;51.368;6.782;2023-04-06T10:20:25;101302.69;;;11.11;57.48
9257;BME280;4665;51.368;6.782;2023-04-06T10:23:01;101307.16;;;11.20;55.02
9257;BME280;4665;51.368;6.782;2023-04-06T10:25:31;101299.84;;;11.22;52.66
9257;BME280;4665;51.368;6.782;2023-04-06T10:28:08;101304.09;;;11.15;52.75
9257;BME280;4665;51.368;6.782;2023-04-06T10:30:35;101301.41;;;11.15;53.67
9257;BME280;4665;51.368;6.782;2023-04-06T10:33:19;101307.44;;;11.17;56.44
9257;BME280;4665;51.368;6.782;2023-04-06T10:35:45;101299.97;;;11.21;54.17
9257;BME280;4665;51.368;6.782;2023-04-06T10:38:10;101302.50;;;11.22;54.88
9257;BME280;4665;51.368;6.782;2023-04-06T10:40:39;101306.31;;;11.20;55.82
9257;BME280;4665;51.368;6.782;2023-04-06T10:43:09;101296.53;;;11.10;54.12
9257;BME280;4665;51.368;6.782;2023-04-06T10:45:35;101287.13;;;11.06;54.83
9257;BME280;4665;51.368;6.782;2023-04-06T10:48:21;101305.78;;;11.06;53.64
9257;BME280;4665;51.368;6.782;2023-04-06T10:50:49;101295.16;;;10.97;55.02
9257;BME280;4665;51.368;6.782;2023-04-06T10:53:25;101311.56;;;11.02;55.25
9257;BME280;4665;51.368;6.782;2023-04-06T10:55:52;101313.53;;;11.00;55.79
9257;BME280;4665;51.368;6.782;2023-04-06T10:58:18;101305.81;;;10.97;58.84
9257;BME280;4665;51.368;6.782;2023-04-06T11:00:48;101305.81;;;10.97;56.00
9257;BME280;4665;51.368;6.782;2023-04-06T11:03:15;101299.09;;;10.92;56.44
9257;BME280;4665;51.368;6.782;2023-04-06T11:05:48;101308.19;;;11.00;60.86
9257;BME280;4665;51.368;6.782;2023-04-06T11:08:29;101295.69;;;11.10;58.43
9257;BME280;4665;51.368;6.782;2023-04-06T11:11:09;101291.44;;;11.17;60.81
9257;BME280;4665;51.368;6.782;2023-04-06T11:13:41;101293.69;;;11.22;60.04
9257;BME280;4665;51.368;6.782;2023-04-06T11:16:11;101300.53;;;11.24;59.74
9257;BME280;4665;51.368;6.782;2023-04-06T11:18:37;101296.59;;;11.28;59.10
9257;BME280;4665;51.368;6.782;2023-04-06T11:21:02;101294.63;;;11.30;58.55
9257;BME280;4665;51.368;6.782;2023-04-06T11:23:28;101293.63;;;11.31;59.69
9257;BME280;4665;51.368;6.782;2023-04-06T11:25:53;101297.31;;;11.30;61.17
9257;BME280;4665;51.368;6.782;2023-04-06T11:28:19;101294.22;;;11.25;62.30
9257;BME280;4665;51.368;6.782;2023-04-06T11:30:48;101283.31;;;11.19;61.22
9257;BME280;4665;51.368;6.782;2023-04-06T11:33:20;101293.84;;;11.10;63.80
9257;BME280;4665;51.368;6.782;2023-04-06T11:35:48;101281.53;;;11.09;63.87
9257;BME280;4665;51.368;6.782;2023-04-06T11:38:13;101289.53;;;11.09;67.22
9257;BME280;4665;51.368;6.782;2023-04-06T11:40:39;101293.03;;;11.10;68.97
9257;BME280;4665;51.368;6.782;2023-04-06T11:43:04;101290.06;;;11.13;70.51
9257;BME280;4665;51.368;6.782;2023-04-06T11:45:41;101284.75;;;11.03;70.62
9257;BME280;4665;51.368;6.782;2023-04-06T11:48:17;101284.34;;;10.98;68.94
9257;BME280;4665;51.368;6.782;2023-04-06T11:50:46;101286.03;;;10.99;73.60
9257;BME280;4665;51.368;6.782;2023-04-06T11:53:12;101285.06;;;11.00;71.39
9257;BME280;4665;51.368;6.782;2023-04-06T11:55:38;101283.94;;;11.03;71.27
9257;BME280;4665;51.368;6.782;2023-04-06T11:58:04;101282.63;;;11.07;73.85
9257;BME280;4665;51.368;6.782;2023-04-06T12:00:29;101286.13;;;11.17;78.05
9257;BME280;4665;51.368;6.782;2023-04-06T12:03:00;101285.41;;;11.15;75.62
9257;BME280;4665;51.368;6.782;2023-04-06T12:05:25;101290.88;;;11.13;74.94
9257;BME280;4665;51.368;6.782;2023-04-06T12:07:51;101278.25;;;11.15;76.95
9257;BME280;4665;51.368;6.782;2023-04-06T12:10:16;101277.81;;;11.20;82.48
9257;BME280;4665;51.368;6.782;2023-04-06T12:12:42;101268.41;;;11.16;76.73
9257;BME280;4665;51.368;6.782;2023-04-06T12:15:07;101277.41;;;11.15;75.14
9257;BME280;4665;51.368;6.782;2023-04-06T12:17:33;101263.97;;;11.07;76.56
9257;BME280;4665;51.368;6.782;2023-04-06T12:19:58;101279.53;;;11.11;80.38
9257;BME280;4665;51.368;6.782;2023-04-06T12:22:24;101264.53;;;11.10;80.73
9257;BME280;4665;51.368;6.782;2023-04-06T12:24:49;101278.13;;;11.17;81.60
9257;BME280;4665;51.368;6.782;2023-04-06T12:27:15;101281.47;;;11.19;79.23
9257;BME280;4665;51.368;6.782;2023-04-06T12:29:40;101269.41;;;11.15;80.60
9257;BME280;4665;51.368;6.782;2023-04-06T12:32:06;101263.66;;;11.20;77.82
9257;BME280;4665;51.368;6.782;2023-04-06T12:34:31;101258.06;;;11.13;78.03
9257;BME280;4665;51.368;6.782;2023-04-06T12:36:57;101258.75;;;11.15;78.08
9257;BME280;4665;51.368;6.782;2023-04-06T12:39:23;101267.16;;;11.20;76.66
9257;BME280;4665;51.368;6.782;2023-04-06T12:41:48;101269.41;;;11.15;77.95
9257;BME280;4665;51.368;6.782;2023-04-06T12:44:14;101266.06;;;11.13;83.33
9257;BME280;4665;51.368;6.782;2023-04-06T12:46:39;101257.66;;;11.08;80.31
9257;BME280;4665;51.368;6.782;2023-04-06T12:49:05;101266.31;;;11.20;82.25
9257;BME280;4665;51.368;6.782;2023-04-06T12:51:31;101266.75;;;11.15;85.61
9257;BME280;4665;51.368;6.782;2023-04-06T12:53:57;101265.53;;;11.09;79.24
9257;BME280;4665;51.368;6.782;2023-04-06T12:56:22;101259.63;;;11.06;75.85
9257;BME280;4665;51.368;6.782;2023-04-06T12:58:48;101262.69;;;11.11;87.78
9257;BME280;4665;51.368;6.782;2023-04-06T13:01:13;101260.31;;;11.08;73.27
9257;BME280;4665;51.368;6.782;2023-04-06T13:03:40;101258.09;;;11.03;73.04
9257;BME280;4665;51.368;6.782;2023-04-06T13:06:06;101261.47;;;11.05;73.32
9257;BME280;4665;51.368;6.782;2023-04-06T13:08:33;101264.66;;;11.09;73.92
9257;BME280;4665;51.368;6.782;2023-04-06T13:10:59;101264.22;;;11.13;75.90